Time;durP1;ratioP1;P1;durP2;ratioP2;P2;SDS_P1;SDS_P2;PMS_P1;PMS_P2;Temp;Humidity;BMP_temperature;BMP_pressure;BME280_temperature;BME280_humidity;BME280_pressure;Samples;Min_cycle;Max_cycle;Signal;HPM_P1;HPM_P2
2023/07/20 00:01:19;;;;;;;2.95;2.75;;;;;;;16.36;98.31;101517.94;5074698;28;20149;-87
2023/07/20 00:03:45;;;;;;;2.80;2.60;;;;;;;16.34;97.98;101518.97;5072403;28;20028;-87
2023/07/20 00:06:10;;;;;;;3.03;2.72;;;;;;;16.28;98.02;101510.44;5055938;28;20064;-88
2023/07/20 00:08:36;;;;;;;3.85;2.70;;;;;;;16.28;98.37;101512.19;5037798;28;20060;-88
2023/07/20 00:11:01;;;;;;;3.95;2.70;;;;;;;16.28;98.47;101512.19;5056520;28;20225;-88
2023/07/20 00:13:27;;;;;;;3.38;3.08;;;;;;;16.29;98.55;101511.28;5064686;28;20047;-87
2023/07/20 00:15:52;;;;;;;3.05;2.72;;;;;;;16.29;98.59;101511.28;5067270;28;20266;-88
2023/07/20 00:18:21;;;;;;;6.05;3.10;;;;;;;16.30;98.73;101518.28;5066844;28;20040;-89
2023/07/20 00:20:46;;;;;;;4.32;2.67;;;;;;;16.30;98.85;101519.13;5054674;28;20047;-88
2023/07/20 00:23:12;;;;;;;3.53;3.08;;;;;;;16.29;98.75;101520.06;5063100;28;20063;-88
2023/07/20 00:25:37;;;;;;;2.50;2.40;;;;;;;16.31;98.66;101528.75;5056125;28;20081;-87
2023/07/20 00:28:03;;;;;;;5.22;2.60;;;;;;;16.31;98.56;101527.91;5074848;28;20251;-88
2023/07/20 00:30:28;;;;;;;3.15;2.85;;;;;;;16.31;98.53;101534.03;5074217;28;20251;-87
2023/07/20 00:32:53;;;;;;;3.45;2.67;;;;;;;16.30;98.56;101520.94;5074506;28;20059;-87
2023/07/20 00:35:19;;;;;;;3.63;2.50;;;;;;;16.30;98.65;101523.56;5051279;28;20034;-87
2023/07/20 00:37:44;;;;;;;2.72;2.53;;;;;;;16.29;98.28;101519.22;5078275;28;20039;-88
2023/07/20 00:40:10;;;;;;;4.95;2.90;;;;;;;16.27;98.49;101519.28;5078128;28;20044;-88
2023/07/20 00:42:35;;;;;;;3.88;2.90;;;;;;;16.25;98.24;101515.88;5078001;28;20505;-88
2023/07/20 00:45:01;;;;;;;4.20;2.83;;;;;;;16.20;98.02;101511.78;5078480;28;20131;-87
2023/07/20 00:47:27;;;;;;;2.80;2.40;;;;;;;16.18;98.25;101517.13;5077560;28;20360;-88
2023/07/20 00:49:53;;;;;;;3.03;2.70;;;;;;;16.17;98.66;101512.81;5078075;28;20321;-88
2023/07/20 00:52:21;;;;;;;3.28;2.67;;;;;;;16.15;98.73;101514.66;5078179;28;20024;-87
2023/07/20 00:54:47;;;;;;;3.65;2.80;;;;;;;16.11;98.79;101513.97;5077521;28;20095;-88
2023/07/20 00:57:15;;;;;;;2.72;2.50;;;;;;;16.06;98.78;101521.31;5077969;28;20256;-87
2023/07/20 00:59:40;;;;;;;3.30;3.10;;;;;;;16.03;99.33;101520.63;5077404;28;20067;-87
2023/07/20 01:04:35;;;;;;;3.25;2.53;;;;;;;15.95;99.02;101518.34;5506927;22;20273;-85
2023/07/20 01:07:21;;;;;;;3.15;2.83;;;;;;;15.92;99.25;101527.31;5077807;28;20250;-85
2023/07/20 01:10:06;;;;;;;2.85;2.65;;;;;;;15.88;99.25;101525.75;5059778;28;20396;-85
2023/07/20 01:12:43;;;;;;;2.47;2.20;;;;;;;15.84;99.23;101523.34;5059476;28;20073;-85
2023/07/20 01:15:09;;;;;;;1.95;1.85;;;;;;;15.81;99.14;101523.50;5077850;28;20250;-85
2023/07/20 01:17:35;;;;;;;2.03;1.92;;;;;;;15.76;99.22;101522.91;5059084;28;20021;-85
2023/07/20 01:20:01;;;;;;;3.03;2.13;;;;;;;15.72;99.27;101516.88;5055694;28;20032;-85
2023/07/20 01:22:32;;;;;;;1.80;1.70;;;;;;;15.68;99.02;101517.97;5075050;28;20036;-85
2023/07/20 01:25:16;;;;;;;1.70;1.60;;;;;;;15.62;99.00;101523.56;5053460;28;20036;-85
2023/07/20 01:28:14;;;;;;;1.67;1.58;;;;;;;15.59;99.01;101529.00;5041027;28;20033;-85
2023/07/20 01:30:46;;;;;;;1.63;1.52;;;;;;;15.56;98.92;101530.00;5049959;28;20063;-85
2023/07/20 01:33:16;;;;;;;1.73;1.58;;;;;;;15.51;99.00;101529.38;5057836;28;20063;-85
2023/07/20 01:35:44;;;;;;;1.40;1.30;;;;;;;15.47;99.07;101531.31;5058235;28;20028;-85
2023/07/20 01:38:11;;;;;;;1.70;1.60;;;;;;;15.43;98.98;101528.94;5059149;28;20029;-85
2023/07/20 01:40:37;;;;;;;3.40;1.55;;;;;;;15.39;99.20;101536.16;5076448;28;20046;-85
2023/07/20 01:43:03;;;;;;;1.08;1.08;;;;;;;15.34;98.95;101531.09;5077123;28;20070;-85
2023/07/20 01:45:29;;;;;;;1.40;1.30;;;;;;;15.31;99.08;101536.50;5076563;28;20099;-85
2023/07/20 01:47:54;;;;;;;0.90;0.90;;;;;;;15.28;98.87;101541.06;5059067;28;20038;-85
2023/07/20 01:50:20;;;;;;;1.65;1.30;;;;;;;15.24;99.07;101535.09;5058273;28;20096;-85
2023/07/20 01:52:45;;;;;;;1.15;1.08;;;;;;;15.22;99.14;101541.41;5077230;28;20059;-85
2023/07/20 01:55:10;;;;;;;0.95;0.95;;;;;;;15.19;99.13;101537.13;5076815;28;20070;-85
2023/07/20 01:57:36;;;;;;;1.00;0.90;;;;;;;15.17;99.08;101533.69;5076566;28;20339;-85
2023/07/20 02:00:02;;;;;;;1.25;1.00;;;;;;;15.13;99.19;101535.66;5058924;28;20245;-85
2023/07/20 02:02:28;;;;;;;2.28;0.90;;;;;;;15.11;99.15;101540.13;5076788;28;20037;-85
2023/07/20 02:04:53;;;;;;;1.15;1.10;;;;;;;15.06;98.80;101536.00;5046728;28;20401;-85
2023/07/20 02:07:19;;;;;;;1.08;1.08;;;;;;;15.02;98.81;101537.94;5056324;28;20036;-85
2023/07/20 02:09:45;;;;;;;1.00;1.00;;;;;;;14.98;99.07;101537.22;5038749;28;20040;-85
2023/07/20 02:12:10;;;;;;;1.02;1.02;;;;;;;14.97;99.00;101539.94;5038877;28;20055;-84
2023/07/20 02:14:36;;;;;;;1.15;1.05;;;;;;;14.95;99.22;101533.88;5038204;28;20309;-84
2023/07/20 02:17:02;;;;;;;0.90;0.90;;;;;;;14.91;99.34;101532.31;5038679;28;20028;-84
2023/07/20 02:19:29;;;;;;;1.42;1.23;;;;;;;14.88;99.11;101537.72;5055909;28;20025;-84
2023/07/20 02:21:55;;;;;;;1.00;1.00;;;;;;;14.84;99.18;101536.19;5020398;28;20086;-85
2023/07/20 02:24:20;;;;;;;1.30;1.02;;;;;;;14.82;99.32;101545.94;5018415;28;20057;-85
2023/07/20 02:26:45;;;;;;;1.30;1.20;;;;;;;14.80;99.31;101543.38;5054679;28;20055;-85
2023/07/20 02:29:14;;;;;;;1.20;1.10;;;;;;;14.77;99.64;101541.75;5045860;28;20044;-85
2023/07/20 02:31:39;;;;;;;1.00;1.00;;;;;;;14.75;99.67;101534.81;5036653;28;20036;-85
2023/07/20 02:34:06;;;;;;;1.27;1.00;;;;;;;14.74;99.85;101538.41;5056041;28;20205;-85
2023/07/20 02:36:35;;;;;;;1.10;1.10;;;;;;;14.72;99.89;101538.47;5021313;28;20037;-85
2023/07/20 02:39:03;;;;;;;0.98;0.98;;;;;;;14.72;100.00;101529.72;5027759;28;20036;-85
2023/07/20 02:41:33;;;;;;;1.10;1.00;;;;;;;14.72;100.00;101538.47;5037001;28;20037;-85
2023/07/20 02:43:58;;;;;;;1.00;0.98;;;;;;;14.70;100.00;101535.06;5056240;28;20075;-85
2023/07/20 02:46:24;;;;;;;1.25;1.20;;;;;;;14.68;100.00;101544.81;5041484;28;20041;-85
2023/07/20 02:48:49;;;;;;;2.38;1.05;;;;;;;14.66;100.00;101543.16;5044810;28;20471;-85
2023/07/20 02:51:14;;;;;;;0.98;0.98;;;;;;;14.64;100.00;101551.13;5071887;28;20081;-85
2023/07/20 02:53:41;;;;;;;1.33;1.17;;;;;;;14.63;100.00;101548.59;5065117;28;20044;-85
2023/07/20 02:56:07;;;;;;;1.65;1.00;;;;;;;14.62;100.00;101554.78;5028457;28;20061;-85
2023/07/20 02:58:36;;;;;;;2.95;1.17;;;;;;;14.62;100.00;101555.63;5068737;28;20380;-87
2023/07/20 03:01:02;;;;;;;1.30;1.30;;;;;;;14.62;100.00;101560.06;5054038;28;20068;-87
2023/07/20 03:03:28;;;;;;;2.55;1.38;;;;;;;14.62;100.00;101563.53;5055228;28;20024;-87
2023/07/20 03:05:55;;;;;;;1.75;1.50;;;;;;;14.63;100.00;101570.53;5037736;28;20057;-87
2023/07/20 03:08:22;;;;;;;1.65;1.55;;;;;;;14.64;100.00;101566.13;5037445;28;20033;-87
2023/07/20 03:10:47;;;;;;;1.50;1.45;;;;;;;14.64;100.00;101566.97;5037325;28;20029;-87
2023/07/20 03:13:14;;;;;;;3.25;1.52;;;;;;;14.63;100.00;101562.63;5040393;28;20024;-87
2023/07/20 03:15:39;;;;;;;1.30;1.30;;;;;;;14.62;100.00;101571.44;5056583;28;20035;-87
2023/07/20 03:18:05;;;;;;;1.20;1.20;;;;;;;14.60;100.00;101568.03;5075494;28;20040;-87
2023/07/20 03:20:31;;;;;;;1.75;1.30;;;;;;;14.57;100.00;101571.69;5056791;28;20431;-87
2023/07/20 03:22:56;;;;;;;1.67;1.48;;;;;;;14.54;100.00;101566.50;5057256;28;20028;-87
2023/07/20 03:25:22;;;;;;;1.70;1.42;;;;;;;14.51;100.00;101566.63;5056454;28;20090;-86
2023/07/20 03:27:48;;;;;;;1.63;1.52;;;;;;;14.48;100.00;101566.81;5057182;28;20040;-87
2023/07/20 03:30:13;;;;;;;1.55;1.45;;;;;;;14.47;100.00;101569.50;5075244;28;20028;-87
2023/07/20 03:32:39;;;;;;;1.67;1.40;;;;;;;14.43;100.00;101571.41;5056700;28;20032;-86
2023/07/20 03:35:05;;;;;;;1.83;1.65;;;;;;;14.40;100.00;101566.28;5043611;28;20406;-87
2023/07/20 03:37:31;;;;;;;1.38;1.27;;;;;;;14.38;100.00;101573.41;5054722;28;20139;-87
2023/07/20 03:39:56;;;;;;;1.27;1.10;;;;;;;14.36;100.00;101572.63;5054921;28;20060;-87
2023/07/20 03:42:23;;;;;;;1.30;1.20;;;;;;;14.33;100.00;101576.22;5054671;28;20037;-87
2023/07/20 03:44:48;;;;;;;2.50;1.50;;;;;;;14.32;100.00;101574.53;5037498;28;20024;-87
2023/07/20 03:47:14;;;;;;;1.02;1.02;;;;;;;14.31;100.00;101574.59;5036905;28;20032;-86
2023/07/20 03:49:40;;;;;;;1.30;1.30;;;;;;;14.30;100.00;101576.38;5039856;28;20024;-87
2023/07/20 03:52:06;;;;;;;1.40;1.30;;;;;;;14.28;100.00;101572.97;5057121;28;20358;-86
2023/07/20 03:54:32;;;;;;;2.05;1.40;;;;;;;14.25;100.00;101573.09;5074422;28;20095;-86
2023/07/20 03:56:58;;;;;;;1.50;1.40;;;;;;;14.23;100.00;101571.47;5033083;28;20080;-86
2023/07/20 03:59:24;;;;;;;1.50;1.40;;;;;;;14.21;100.00;101571.53;5036169;28;20037;-87
2023/07/20 04:01:50;;;;;;;1.60;1.50;;;;;;;14.21;100.00;101574.16;5025253;28;20121;-87
2023/07/20 04:04:16;;;;;;;1.55;1.45;;;;;;;14.19;100.00;101576.84;5018610;28;20046;-87
2023/07/20 04:06:44;;;;;;;1.30;1.20;;;;;;;14.18;100.00;101577.75;5010184;28;20048;-86
2023/07/20 04:09:11;;;;;;;1.42;1.33;;;;;;;14.17;100.00;101578.72;5023752;28;20136;-86
2023/07/20 04:11:36;;;;;;;1.60;1.50;;;;;;;14.17;100.00;101581.34;5020570;28;20075;-87
2023/07/20 04:14:02;;;;;;;1.50;1.40;;;;;;;14.17;100.00;101580.47;5039146;28;20033;-87
2023/07/20 04:16:27;;;;;;;1.40;1.30;;;;;;;14.19;100.00;101584.75;5040677;28;20029;-87
2023/07/20 04:18:56;;;;;;;1.77;1.33;;;;;;;14.22;100.00;101578.50;5041071;28;20024;-87
2023/07/20 04:21:21;;;;;;;3.63;1.60;;;;;;;14.24;100.00;101575.78;5058125;28;20091;-87
2023/07/20 04:23:47;;;;;;;2.40;1.75;;;;;;;14.27;100.00;101578.28;5040598;28;20025;-87
2023/07/20 04:26:12;;;;;;;5.20;2.05;;;;;;;14.28;100.00;101572.97;5040323;28;20347;-87
2023/07/20 04:28:40;;;;;;;2.33;1.50;;;;;;;14.31;100.00;101582.50;5020124;28;20036;-87
2023/07/20 04:31:16;;;;;;;1.60;1.50;;;;;;;14.31;100.00;101571.97;5038422;28;20071;-87
2023/07/20 04:33:41;;;;;;;1.80;1.70;;;;;;;14.32;100.00;101578.97;5038523;28;20099;-87
2023/07/20 04:36:07;;;;;;;2.38;1.70;;;;;;;14.35;100.00;101581.44;5019997;28;20037;-87
2023/07/20 04:38:33;;;;;;;1.77;1.67;;;;;;;14.35;100.00;101587.56;5019897;28;20374;-87
2023/07/20 04:40:59;;;;;;;2.08;1.90;;;;;;;14.36;100.00;101588.44;5020273;28;20036;-87
2023/07/20 04:43:25;;;;;;;1.40;1.40;;;;;;;14.38;100.00;101590.06;5020208;28;20231;-87
2023/07/20 04:45:50;;;;;;;2.53;1.90;;;;;;;14.39;100.00;101586.50;5038211;28;20399;-86
2023/07/20 04:48:17;;;;;;;2.38;1.80;;;;;;;14.42;100.00;101585.50;5038474;28;20048;-87
2023/07/20 04:50:45;;;;;;;1.63;1.52;;;;;;;14.44;100.00;101594.19;5020884;28;20033;-87
2023/07/20 04:53:11;;;;;;;2.55;1.70;;;;;;;14.47;100.00;101593.22;5020249;28;20086;-87
2023/07/20 04:55:38;;;;;;;1.63;1.55;;;;;;;14.47;100.00;101586.16;5019853;28;20047;-87
2023/07/20 04:58:05;;;;;;;3.17;2.00;;;;;;;14.50;100.00;101598.38;5020116;28;20191;-87
2023/07/20 05:00:34;;;;;;;3.20;2.00;;;;;;;14.49;100.00;101594.00;5037897;28;20361;-86
2023/07/20 05:03:00;;;;;;;2.20;2.00;;;;;;;14.51;100.00;101589.50;5000474;28;20247;-86
2023/07/20 05:05:26;;;;;;;2.28;2.10;;;;;;;14.53;100.00;101585.03;5030804;28;20060;-87
2023/07/20 05:07:52;;;;;;;2.03;1.90;;;;;;;14.54;100.00;101598.13;5046802;28;20083;-86
2023/07/20 05:10:17;;;;;;;3.05;2.40;;;;;;;14.56;100.00;101593.66;5048358;28;20044;-87
2023/07/20 05:12:42;;;;;;;2.00;1.90;;;;;;;14.58;100.00;101588.34;5040763;28;20021;-87
2023/07/20 05:15:09;;;;;;;2.35;2.15;;;;;;;14.61;100.00;101595.25;5049341;28;20232;-87
2023/07/20 05:17:34;;;;;;;4.05;2.20;;;;;;;14.63;100.00;101593.41;5045494;28;20273;-87
2023/07/20 05:20:00;;;;;;;2.47;2.30;;;;;;;14.65;100.00;101599.47;5055504;28;20267;-87
2023/07/20 05:22:25;;;;;;;2.60;2.40;;;;;;;14.66;100.00;101601.16;5051161;28;20033;-86
2023/07/20 05:24:50;;;;;;;2.33;2.22;;;;;;;14.67;100.00;101594.97;5059947;28;20027;-86
2023/07/20 05:27:16;;;;;;;2.60;2.40;;;;;;;14.69;100.00;101596.59;5077345;28;20343;-86
2023/07/20 05:29:45;;;;;;;2.72;2.50;;;;;;;14.71;100.00;101594.75;5059028;28;20343;-86
2023/07/20 05:32:11;;;;;;;2.90;2.70;;;;;;;14.74;100.00;101601.69;5055887;28;20357;-86
2023/07/20 05:34:37;;;;;;;3.90;2.80;;;;;;;14.73;100.00;101598.16;5049235;28;20351;-86
2023/07/20 05:37:03;;;;;;;4.07;2.72;;;;;;;14.76;100.00;101595.41;5039411;28;20036;-87
2023/07/20 05:39:29;;;;;;;3.08;2.88;;;;;;;14.79;100.00;101597.06;5039888;28;20337;-87
2023/07/20 05:41:54;;;;;;;2.92;2.72;;;;;;;14.80;100.00;101593.47;5076165;28;20342;-86
2023/07/20 05:44:20;;;;;;;3.00;2.80;;;;;;;14.83;100.00;101589.88;5075059;28;20024;-86
2023/07/20 05:46:46;;;;;;;3.30;3.10;;;;;;;14.84;100.00;101591.56;5059056;28;20029;-86
2023/07/20 05:49:11;;;;;;;4.10;3.05;;;;;;;14.83;100.00;101592.50;5054670;28;20331;-86
2023/07/20 05:51:36;;;;;;;3.03;2.83;;;;;;;14.84;100.00;101591.56;5056684;28;20048;-86
2023/07/20 05:54:02;;;;;;;4.35;2.72;;;;;;;14.86;100.00;101589.69;5057024;28;20044;-86
2023/07/20 05:56:28;;;;;;;3.28;3.05;;;;;;;14.87;100.00;101588.78;5055008;28;20104;-86
2023/07/20 05:58:53;;;;;;;3.03;2.83;;;;;;;14.89;100.00;101589.56;5056747;28;20025;-86
2023/07/20 06:01:19;;;;;;;6.03;3.50;;;;;;;14.91;100.00;101595.63;5055001;28;20025;-86
2023/07/20 06:03:45;;;;;;;3.85;3.45;;;;;;;14.94;100.00;101600.75;5055285;28;20025;-86
2023/07/20 06:06:12;;;;;;;4.80;3.08;;;;;;;14.97;100.00;101598.84;5055325;28;20033;-86
2023/07/20 06:08:38;;;;;;;3.20;3.00;;;;;;;15.01;100.00;101602.19;5038342;28;20063;-86
2023/07/20 06:11:03;;;;;;;3.25;2.88;;;;;;;15.04;100.00;101599.38;5056602;28;20082;-86
2023/07/20 06:13:29;;;;;;;7.72;4.10;;;;;;;15.07;100.00;101606.31;5054630;28;20339;-86
2023/07/20 06:15:55;;;;;;;4.22;3.92;;;;;;;15.09;100.00;101613.22;5056645;28;20037;-86
2023/07/20 06:18:23;;;;;;;4.15;3.85;;;;;;;15.13;100.00;101617.44;5074529;28;20086;-86
2023/07/20 06:20:52;;;;;;;4.00;3.70;;;;;;;15.15;100.00;101609.41;5076559;28;20099;-86
2023/07/20 06:23:21;;;;;;;;;;;;;;;15.19;100.00;101610.13;5064585;28;20032;-86
2023/07/20 06:25:46;;;;;;;3.42;3.13;;;;;;;15.22;100.00;101607.34;5043099;28;20018;-86
2023/07/20 06:28:13;;;;;;;2.60;2.40;;;;;;;15.26;100.00;101612.44;5050137;28;20330;-86
2023/07/20 06:30:39;;;;;;;3.92;3.30;;;;;;;15.30;100.00;101616.63;5046295;28;20381;-86
2023/07/20 06:33:06;;;;;;;3.45;2.65;;;;;;;15.35;100.00;101614.63;5046065;28;20354;-87
2023/07/20 06:35:32;;;;;;;3.13;2.88;;;;;;;15.37;100.00;101617.16;5046206;28;20351;-86
2023/07/20 06:38:00;;;;;;;3.03;2.78;;;;;;;15.41;100.00;101618.75;5061403;28;20040;-86
2023/07/20 06:40:26;;;;;;;3.00;2.50;;;;;;;15.44;100.00;101618.56;5061550;28;20076;-86
2023/07/20 06:42:51;;;;;;;5.10;2.65;;;;;;;15.50;100.00;101620.94;5074622;28;20546;-86
2023/07/20 06:45:17;;;;;;;3.30;3.08;;;;;;;15.55;100.00;101616.28;5075591;28;20054;-86
2023/07/20 06:47:42;;;;;;;3.33;3.03;;;;;;;15.60;100.00;101617.84;5074575;28;20067;-86
2023/07/20 06:50:09;;;;;;;2.10;2.00;;;;;;;15.63;100.00;101617.69;5074742;28;20039;-87
2023/07/20 06:52:35;;;;;;;2.45;2.25;;;;;;;15.65;100.00;101616.69;5071473;28;20044;-87
2023/07/20 06:55:02;;;;;;;2.15;1.70;;;;;;;15.69;100.00;101617.38;5051689;28;20025;-87
2023/07/20 06:57:27;;;;;;;3.33;1.70;;;;;;;15.71;100.00;101629.56;5054791;28;20036;-86
2023/07/20 06:59:53;;;;;;;1.33;1.23;;;;;;;15.70;100.00;101619.09;5055611;28;20059;-87
2023/07/20 07:02:19;;;;;;;5.30;1.30;;;;;;;15.71;99.48;101619.00;5054291;28;20092;-87
2023/07/20 07:04:46;;;;;;;4.32;1.40;;;;;;;15.73;97.44;101622.44;5045120;28;20049;-87
2023/07/20 07:07:15;;;;;;;2.55;1.23;;;;;;;15.74;97.39;101618.88;5054435;28;20029;-87
2023/07/20 07:09:41;;;;;;;;;;;;;;;15.77;96.63;101617.91;5054111;28;20098;-83
2023/07/20 07:12:08;;;;;;;1.42;1.00;;;;;;;15.80;96.54;101616.88;5056031;28;19999;-87
2023/07/20 07:14:34;;;;;;;1.70;0.98;;;;;;;15.82;96.40;101617.66;5053586;28;20029;-88
2023/07/20 07:17:00;;;;;;;1.73;1.13;;;;;;;15.83;95.95;101614.94;5054226;28;20079;-86
2023/07/20 07:19:25;;;;;;;1.38;0.93;;;;;;;15.87;94.34;101624.41;5047902;28;20359;-87
2023/07/20 07:21:51;;;;;;;2.45;1.17;;;;;;;15.87;93.29;101618.28;5047514;28;20036;-87
2023/07/20 07:24:16;;;;;;;1.55;1.10;;;;;;;15.87;92.74;101621.75;5043484;28;20036;-86
2023/07/20 07:26:42;;;;;;;1.10;1.00;;;;;;;15.90;91.42;101624.25;5053646;28;20102;-87
2023/07/20 07:29:08;;;;;;;2.28;0.80;;;;;;;15.92;89.96;101625.03;5053553;28;20255;-86
2023/07/20 07:31:38;;;;;;;2.97;0.98;;;;;;;15.93;89.11;101631.16;5052645;28;20068;-86
2023/07/20 07:34:04;;;;;;;0.73;0.73;;;;;;;15.97;89.02;101626.56;5051298;28;20239;-87
2023/07/20 07:36:31;;;;;;;2.45;0.93;;;;;;;15.99;89.15;101625.59;5047074;28;20051;-86
2023/07/20 07:38:56;;;;;;;1.20;0.82;;;;;;;16.02;88.87;101625.41;5052173;28;20040;-87
2023/07/20 07:41:22;;;;;;;1.77;0.90;;;;;;;16.06;88.96;101626.09;5050998;28;20039;-86
2023/07/20 07:43:47;;;;;;;1.33;0.98;;;;;;;16.12;90.13;101628.44;5057620;28;20093;-87
2023/07/20 07:46:14;;;;;;;2.67;1.27;;;;;;;16.18;91.37;101633.41;5052105;28;20037;-87
2023/07/20 07:48:39;;;;;;;1.92;1.10;;;;;;;16.24;92.02;101629.59;5050716;28;20025;-86
2023/07/20 07:51:05;;;;;;;0.80;0.80;;;;;;;16.30;92.74;101640.72;5048200;28;20390;-87
2023/07/20 07:53:32;;;;;;;0.70;0.70;;;;;;;16.35;92.65;101634.31;5050815;28;20064;-87
2023/07/20 07:55:57;;;;;;;2.50;0.88;;;;;;;16.38;92.17;101636.81;5068682;28;20040;-87
2023/07/20 07:58:23;;;;;;;3.13;0.90;;;;;;;16.43;91.56;101637.44;5048417;28;20054;-87
2023/07/20 08:00:49;;;;;;;0.95;0.88;;;;;;;16.49;92.70;101634.44;5053914;28;20040;-87
2023/07/20 08:03:14;;;;;;;0.93;0.80;;;;;;;16.54;92.77;101637.72;5053355;28;20143;-87
2023/07/20 08:05:39;;;;;;;1.10;1.10;;;;;;;16.57;92.08;101631.41;5050684;28;20048;-86
2023/07/20 08:08:05;;;;;;;0.95;0.90;;;;;;;16.59;91.67;101633.03;5052889;28;20029;-86
2023/07/20 08:10:31;;;;;;;0.88;0.85;;;;;;;16.60;91.25;101642.66;5050260;28;20037;-87
2023/07/20 08:12:56;;;;;;;2.00;0.90;;;;;;;16.61;91.66;101632.97;5049927;28;20059;-87
2023/07/20 08:15:22;;;;;;;0.70;0.70;;;;;;;16.58;89.69;101633.97;5032835;28;20041;-87
2023/07/20 08:17:48;;;;;;;0.82;0.80;;;;;;;16.56;87.57;101637.63;5049328;28;20107;-88
2023/07/20 08:20:14;;;;;;;1.38;1.23;;;;;;;16.52;86.71;101639.59;5056364;28;20274;-87
2023/07/20 08:22:39;;;;;;;4.07;0.98;;;;;;;16.46;86.72;101637.25;5059177;28;20033;-88
2023/07/20 08:25:06;;;;;;;1.10;1.00;;;;;;;16.44;86.68;101647.06;5053860;28;20319;-87
2023/07/20 08:27:31;;;;;;;2.15;1.00;;;;;;;16.39;87.51;101643.78;5053933;28;20101;-87
2023/07/20 08:29:57;;;;;;;2.95;0.80;;;;;;;16.36;87.57;101641.34;5044072;28;20033;-87
2023/07/20 08:32:22;;;;;;;1.55;0.85;;;;;;;16.31;87.58;101641.56;5050287;28;20064;-88
2023/07/20 08:34:48;;;;;;;2.83;0.90;;;;;;;16.25;85.85;101639.25;5047275;28;20033;-88
2023/07/20 08:37:13;;;;;;;1.27;1.05;;;;;;;16.22;86.11;101644.69;5050772;28;20048;-88
2023/07/20 08:39:38;;;;;;;2.08;1.05;;;;;;;16.20;86.79;101652.69;5049066;28;20268;-88
2023/07/20 08:42:06;;;;;;;0.85;0.85;;;;;;;16.18;87.62;101643.97;5052057;28;20041;-88
2023/07/20 08:44:35;;;;;;;1.60;1.10;;;;;;;16.17;88.32;101644.06;5050795;28;20162;-88
2023/07/20 08:47:04;;;;;;;5.10;0.90;;;;;;;16.20;89.06;101647.41;5049060;28;20033;-87
2023/07/20 08:49:32;;;;;;;2.90;1.10;;;;;;;16.26;90.03;101638.28;5048830;28;20033;-88
2023/07/20 08:51:59;;;;;;;1.10;0.90;;;;;;;16.29;84.34;101640.78;5050345;28;20028;-87
2023/07/20 08:54:29;;;;;;;1.50;0.88;;;;;;;16.37;83.57;101650.94;5048799;28;20287;-88
2023/07/20 08:56:57;;;;;;;0.73;0.73;;;;;;;16.44;83.83;101647.06;5052964;28;20066;-89
2023/07/20 08:59:24;;;;;;;0.77;0.77;;;;;;;16.51;83.78;101641.34;5053840;28;20062;-89
2023/07/20 09:01:54;;;;;;;3.20;0.80;;;;;;;16.58;82.32;101652.47;5057330;28;20378;-89
2023/07/20 09:04:19;;;;;;;0.70;0.63;;;;;;;16.63;81.93;101646.94;5055275;28;20412;-88
2023/07/20 09:06:47;;;;;;;0.88;0.60;;;;;;;16.66;81.54;101634.41;5060443;28;20059;-88
2023/07/20 09:09:13;;;;;;;1.35;0.70;;;;;;;16.70;81.09;101649.19;5051832;28;20063;-88
2023/07/20 09:11:38;;;;;;;0.60;0.60;;;;;;;16.76;82.38;101648.00;5053581;28;20036;-88
2023/07/20 09:14:08;;;;;;;0.70;0.60;;;;;;;16.79;82.53;101637.25;5063653;28;20033;-88
2023/07/20 09:17:12;;;;;;;0.65;0.63;;;;;;;16.86;83.22;101643.09;5057697;28;20096;-88
2023/07/20 09:19:38;;;;;;;0.80;0.80;;;;;;;16.92;82.59;101636.59;5012461;28;20037;-88
2023/07/20 09:22:05;;;;;;;4.22;0.88;;;;;;;16.96;81.11;101638.16;5052796;28;20052;-88
2023/07/20 09:24:32;;;;;;;1.00;0.70;;;;;;;16.97;78.96;101642.50;5049954;28;20048;-88
2023/07/20 09:27:03;;;;;;;0.50;0.50;;;;;;;17.00;79.02;101635.25;5048737;28;20025;-88
2023/07/20 09:29:30;;;;;;;0.60;0.60;;;;;;;17.03;78.25;101650.13;5050243;28;20060;-88
2023/07/20 09:32:05;;;;;;;0.57;0.50;;;;;;;17.04;78.27;101633.28;5055574;28;20333;-88
2023/07/20 09:34:34;;;;;;;0.73;0.70;;;;;;;17.03;78.81;101635.09;5054499;28;20033;-87
2023/07/20 09:37:00;;;;;;;1.23;0.80;;;;;;;17.07;78.88;101635.78;5054833;28;20245;-88
2023/07/20 09:39:26;;;;;;;0.63;0.63;;;;;;;17.12;77.91;101624.91;5054650;28;20323;-88
2023/07/20 09:41:52;;;;;;;0.52;0.50;;;;;;;17.17;77.62;101628.16;5054375;28;20024;-88
2023/07/20 09:44:18;;;;;;;0.50;0.50;;;;;;;17.20;78.28;101628.00;5054925;28;20212;-88
2023/07/20 09:46:53;;;;;;;1.90;0.90;;;;;;;17.21;79.48;101621.78;5053332;28;20036;-88
2023/07/20 09:49:19;;;;;;;1.17;0.50;;;;;;;17.23;79.65;101627.84;5049834;28;20037;-88
2023/07/20 09:51:46;;;;;;;0.65;0.63;;;;;;;17.23;79.98;101625.19;5052815;28;20260;-89
2023/07/20 09:54:13;;;;;;;1.35;0.68;;;;;;;17.30;79.98;101623.91;5052015;28;20033;-88
2023/07/20 09:56:40;;;;;;;0.98;0.70;;;;;;;17.33;79.76;101625.50;5051230;28;20044;-88
2023/07/20 09:59:06;;;;;;;0.60;0.60;;;;;;;17.35;80.19;101632.41;5052526;28;20362;-88
2023/07/20 10:01:34;;;;;;;0.77;0.63;;;;;;;17.34;78.48;101629.88;5053663;28;20040;-88
2023/07/20 10:04:03;;;;;;;1.23;0.70;;;;;;;17.32;78.65;101634.38;5050929;28;20059;-87
2023/07/20 10:06:32;;;;;;;0.60;0.60;;;;;;;17.31;79.71;101630.88;5048707;28;20232;-88
2023/07/20 10:09:02;;;;;;;3.08;0.95;;;;;;;17.29;80.58;101630.13;5049751;28;20052;-88
2023/07/20 10:11:31;;;;;;;1.55;0.70;;;;;;;17.27;81.14;101635.50;5048571;28;20331;-88
2023/07/20 10:13:58;;;;;;;;;;;;;;;17.29;82.10;101632.78;5051602;28;20075;-88
2023/07/20 10:16:47;;;;;;;0.70;0.70;;;;;;;17.30;82.11;101631.84;5049378;28;19916;-88
2023/07/20 10:19:28;;;;;;;1.05;0.82;;;;;;;17.35;79.39;101632.41;5055708;28;20051;-88
2023/07/20 10:22:03;;;;;;;1.27;0.85;;;;;;;17.42;77.46;101622.34;5051303;28;20060;-88
2023/07/20 10:24:31;;;;;;;0.50;0.50;;;;;;;17.49;76.95;101628.16;5057486;28;20030;-88
2023/07/20 10:26:58;;;;;;;0.60;0.60;;;;;;;17.55;77.21;101625.97;5050003;28;20551;-88
2023/07/20 10:29:24;;;;;;;0.80;0.80;;;;;;;17.61;77.87;101617.69;5053222;28;20141;-87
2023/07/20 10:31:50;;;;;;;1.00;0.60;;;;;;;17.66;78.56;101620.06;5050032;28;20029;-87
2023/07/20 10:34:16;;;;;;;0.63;0.63;;;;;;;17.70;77.50;101618.09;5061053;28;20047;-88
2023/07/20 10:36:52;;;;;;;0.75;0.70;;;;;;;17.70;77.13;101626.03;5054081;28;20032;-89
2023/07/20 10:39:30;;;;;;;0.70;0.70;;;;;;;17.68;77.69;101623.47;5045627;28;20048;-88
2023/07/20 10:42:03;;;;;;;0.75;0.60;;;;;;;17.66;77.58;101620.06;5057134;28;20028;-88
2023/07/20 10:44:29;;;;;;;0.70;0.70;;;;;;;17.64;78.34;101616.66;5054536;28;20135;-88
2023/07/20 10:47:05;;;;;;;0.90;0.70;;;;;;;17.65;78.62;101619.22;5050497;28;20029;-88
2023/07/20 10:49:33;;;;;;;1.15;0.85;;;;;;;17.70;77.62;101607.50;5044943;28;20251;-88
2023/07/20 10:52:04;;;;;;;1.37;0.70;;;;;;;17.77;77.21;101617.66;5053233;28;20154;-87
2023/07/20 10:54:30;;;;;;;0.70;0.70;;;;;;;17.83;76.43;101603.19;5044226;28;20330;-88
2023/07/20 10:56:57;;;;;;;1.25;0.82;;;;;;;17.82;73.69;101602.31;5052039;28;20037;-87
2023/07/20 10:59:31;;;;;;;0.70;0.70;;;;;;;17.84;73.41;101604.88;5058265;28;20025;-88
2023/07/20 11:02:02;;;;;;;0.63;0.63;;;;;;;17.83;74.23;101604.03;5050899;28;20073;-89
2023/07/20 11:04:38;;;;;;;0.88;0.63;;;;;;;17.87;74.11;101604.75;5055186;28;20243;-88
2023/07/20 11:07:03;;;;;;;0.90;0.88;;;;;;;17.89;74.16;101608.16;5051393;28;20063;-88
2023/07/20 11:09:34;;;;;;;0.63;0.63;;;;;;;17.90;74.94;101603.69;5046437;28;20339;-88
2023/07/20 11:12:17;;;;;;;2.13;0.95;;;;;;;17.92;72.95;101592.09;5050213;28;20041;-88
2023/07/20 11:15:03;;;;;;;0.60;0.60;;;;;;;17.96;70.44;101598.06;5059340;28;20144;-88
2023/07/20 11:17:30;;;;;;;1.50;0.82;;;;;;;17.94;71.36;101598.16;5055863;28;20297;-88
2023/07/20 11:19:57;;;;;;;0.60;0.60;;;;;;;17.95;71.91;101596.34;5051033;28;20068;-88
2023/07/20 11:22:23;;;;;;;0.57;0.57;;;;;;;17.93;72.41;101598.22;5050390;28;20064;-87
2023/07/20 11:24:49;;;;;;;1.75;0.68;;;;;;;17.93;73.30;101592.94;5050065;28;20052;-88